sensor_id;sensor_type;location;lat;lon;timestamp;P1;durP1;ratioP1;P2;durP2;ratioP2
54745;SDS011;40640;48.130;11.356;2023-03-14T00:01:09;0.98;;;0.30;;
54745;SDS011;40640;48.130;11.356;2023-03-14T00:05:13;0.43;;;0.10;;
54745;SDS011;40640;48.130;11.356;2023-03-14T00:09:17;0.28;;;0.20;;
54745;SDS011;40640;48.130;11.356;2023-03-14T00:13:20;0.55;;;0.10;;
54745;SDS011;40640;48.130;11.356;2023-03-14T00:17:23;0.13;;;0.13;;
54745;SDS011;40640;48.130;11.356;2023-03-14T00:21:26;0.10;;;0.10;;
54745;SDS011;40640;48.130;11.356;2023-03-14T00:25:30;0.43;;;0.20;;
54745;SDS011;40640;48.130;11.356;2023-03-14T00:29:33;0.38;;;0.25;;
54745;SDS011;40640;48.130;11.356;2023-03-14T00:33:36;0.68;;;0.30;;
54745;SDS011;40640;48.130;11.356;2023-03-14T00:37:39;0.88;;;0.38;;
54745;SDS011;40640;48.130;11.356;2023-03-14T00:41:43;0.17;;;0.10;;
54745;SDS011;40640;48.130;11.356;2023-03-14T00:45:46;1.17;;;0.43;;
54745;SDS011;40640;48.130;11.356;2023-03-14T00:49:49;3.63;;;0.50;;
54745;SDS011;40640;48.130;11.356;2023-03-14T00:53:53;2.95;;;0.25;;
54745;SDS011;40640;48.130;11.356;2023-03-14T00:57:57;0.55;;;0.10;;
54745;SDS011;40640;48.130;11.356;2023-03-14T01:02:00;0.73;;;0.10;;
54745;SDS011;40640;48.130;11.356;2023-03-14T01:06:06;0.30;;;0.20;;
54745;SDS011;40640;48.130;11.356;2023-03-14T01:10:10;0.47;;;0.25;;
54745;SDS011;40640;48.130;11.356;2023-03-14T01:14:14;0.20;;;0.20;;
54745;SDS011;40640;48.130;11.356;2023-03-14T01:18:17;1.05;;;0.50;;
54745;SDS011;40640;48.130;11.356;2023-03-14T01:22:20;1.00;;;0.20;;
54745;SDS011;40640;48.130;11.356;2023-03-14T01:26:24;0.55;;;0.38;;
54745;SDS011;40640;48.130;11.356;2023-03-14T01:30:30;1.23;;;0.30;;
54745;SDS011;40640;48.130;11.356;2023-03-14T01:34:34;1.42;;;0.40;;
54745;SDS011;40640;48.130;11.356;2023-03-14T01:38:37;0.40;;;0.40;;
54745;SDS011;40640;48.130;11.356;2023-03-14T01:46:57;1.67;;;0.32;;
54745;SDS011;40640;48.130;11.356;2023-03-14T01:51:00;0.40;;;0.20;;
54745;SDS011;40640;48.130;11.356;2023-03-14T01:55:07;2.08;;;0.50;;
54745;SDS011;40640;48.130;11.356;2023-03-14T01:59:14;6.00;;;0.70;;
54745;SDS011;40640;48.130;11.356;2023-03-14T02:03:18;0.57;;;0.43;;
54745;SDS011;40640;48.130;11.356;2023-03-14T02:07:25;0.45;;;0.20;;
54745;SDS011;40640;48.130;11.356;2023-03-14T02:11:44;0.22;;;0.22;;
54745;SDS011;40640;48.130;11.356;2023-03-14T02:16:22;2.20;;;0.22;;
54745;SDS011;40640;48.130;11.356;2023-03-14T02:20:47;0.45;;;0.25;;
54745;SDS011;40640;48.130;11.356;2023-03-14T02:24:57;0.20;;;0.10;;
54745;SDS011;40640;48.130;11.356;2023-03-14T02:29:10;0.38;;;0.20;;
54745;SDS011;40640;48.130;11.356;2023-03-14T02:33:14;0.47;;;0.20;;
54745;SDS011;40640;48.130;11.356;2023-03-14T02:37:21;0.47;;;0.10;;
54745;SDS011;40640;48.130;11.356;2023-03-14T02:41:26;0.20;;;0.20;;
54745;SDS011;40640;48.130;11.356;2023-03-14T02:45:38;1.92;;;0.50;;
54745;SDS011;40640;48.130;11.356;2023-03-14T02:49:45;4.55;;;0.50;;
54745;SDS011;40640;48.130;11.356;2023-03-14T02:53:49;0.20;;;0.13;;
54745;SDS011;40640;48.130;11.356;2023-03-14T02:57:53;1.23;;;0.20;;
54745;SDS011;40640;48.130;11.356;2023-03-14T03:01:58;2.15;;;0.20;;
54745;SDS011;40640;48.130;11.356;2023-03-14T03:06:02;0.65;;;0.30;;
54745;SDS011;40640;48.130;11.356;2023-03-14T03:10:05;1.38;;;0.32;;
54745;SDS011;40640;48.130;11.356;2023-03-14T03:14:09;0.10;;;0.10;;
54745;SDS011;40640;48.130;11.356;2023-03-14T03:18:14;0.13;;;0.13;;
54745;SDS011;40640;48.130;11.356;2023-03-14T03:22:17;0.00;;;0.00;;
54745;SDS011;40640;48.130;11.356;2023-03-14T03:26:20;0.47;;;0.10;;
54745;SDS011;40640;48.130;11.356;2023-03-14T03:30:22;0.15;;;0.05;;
54745;SDS011;40640;48.130;11.356;2023-03-14T03:34:27;1.10;;;0.10;;
54745;SDS011;40640;48.130;11.356;2023-03-14T03:38:31;0.15;;;0.03;;
54745;SDS011;40640;48.130;11.356;2023-03-14T03:42:37;0.45;;;0.10;;
54745;SDS011;40640;48.130;11.356;2023-03-14T03:46:43;0.10;;;0.10;;
54745;SDS011;40640;48.130;11.356;2023-03-14T03:50:47;0.47;;;0.10;;
54745;SDS011;40640;48.130;11.356;2023-03-14T03:54:54;1.50;;;0.30;;
54745;SDS011;40640;48.130;11.356;2023-03-14T03:58:57;3.60;;;0.10;;
54745;SDS011;40640;48.130;11.356;2023-03-14T04:03:00;0.00;;;0.00;;
54745;SDS011;40640;48.130;11.356;2023-03-14T04:07:04;0.13;;;0.10;;
54745;SDS011;40640;48.130;11.356;2023-03-14T04:11:08;0.03;;;0.00;;
54745;SDS011;40640;48.130;11.356;2023-03-14T04:15:28;0.20;;;0.20;;
54745;SDS011;40640;48.130;11.356;2023-03-14T04:19:35;0.10;;;0.10;;
54745;SDS011;40640;48.130;11.356;2023-03-14T04:23:40;0.10;;;0.10;;
54745;SDS011;40640;48.130;11.356;2023-03-14T04:27:43;0.00;;;0.00;;
54745;SDS011;40640;48.130;11.356;2023-03-14T04:31:56;0.20;;;0.00;;
54745;SDS011;40640;48.130;11.356;2023-03-14T04:35:59;1.17;;;0.00;;
54745;SDS011;40640;48.130;11.356;2023-03-14T04:40:04;0.63;;;0.20;;
54745;SDS011;40640;48.130;11.356;2023-03-14T04:44:09;0.43;;;0.10;;
54745;SDS011;40640;48.130;11.356;2023-03-14T04:48:12;1.13;;;0.03;;
54745;SDS011;40640;48.130;11.356;2023-03-14T04:52:15;0.13;;;0.10;;
54745;SDS011;40640;48.130;11.356;2023-03-14T04:56:20;0.30;;;0.20;;
54745;SDS011;40640;48.130;11.356;2023-03-14T05:00:23;0.30;;;0.20;;
54745;SDS011;40640;48.130;11.356;2023-03-14T05:04:36;0.40;;;0.10;;
54745;SDS011;40640;48.130;11.356;2023-03-14T05:09:03;1.75;;;0.20;;
54745;SDS011;40640;48.130;11.356;2023-03-14T05:13:26;0.15;;;0.10;;
54745;SDS011;40640;48.130;11.356;2023-03-14T05:17:45;0.45;;;0.00;;
54745;SDS011;40640;48.130;11.356;2023-03-14T05:22:10;0.10;;;0.00;;
54745;SDS011;40640;48.130;11.356;2023-03-14T05:26:25;0.40;;;0.20;;
54745;SDS011;40640;48.130;11.356;2023-03-14T05:30:50;0.10;;;0.00;;
54745;SDS011;40640;48.130;11.356;2023-03-14T05:35:07;0.00;;;0.00;;
54745;SDS011;40640;48.130;11.356;2023-03-14T05:39:17;1.27;;;0.15;;
54745;SDS011;40640;48.130;11.356;2023-03-14T05:43:49;1.15;;;0.50;;
54745;SDS011;40640;48.130;11.356;2023-03-14T05:48:20;1.67;;;0.50;;
54745;SDS011;40640;48.130;11.356;2023-03-14T05:52:42;0.75;;;0.20;;
54745;SDS011;40640;48.130;11.356;2023-03-14T05:57:07;2.22;;;1.42;;
54745;SDS011;40640;48.130;11.356;2023-03-14T06:01:34;0.80;;;0.20;;
54745;SDS011;40640;48.130;11.356;2023-03-14T06:05:48;1.05;;;0.20;;
54745;SDS011;40640;48.130;11.356;2023-03-14T06:09:54;0.28;;;0.20;;
54745;SDS011;40640;48.130;11.356;2023-03-14T06:13:57;0.40;;;0.35;;
54745;SDS011;40640;48.130;11.356;2023-03-14T06:18:00;3.28;;;0.35;;
54745;SDS011;40640;48.130;11.356;2023-03-14T06:22:04;0.80;;;0.28;;
54745;SDS011;40640;48.130;11.356;2023-03-14T06:26:10;0.93;;;0.50;;
54745;SDS011;40640;48.130;11.356;2023-03-14T06:30:14;1.13;;;1.00;;
54745;SDS011;40640;48.130;11.356;2023-03-14T06:34:18;2.28;;;0.73;;
54745;SDS011;40640;48.130;11.356;2023-03-14T06:38:22;2.00;;;0.70;;
54745;SDS011;40640;48.130;11.356;2023-03-14T06:42:28;5.53;;;2.97;;
54745;SDS011;40640;48.130;11.356;2023-03-14T06:46:31;2.08;;;0.88;;
54745;SDS011;40640;48.130;11.356;2023-03-14T06:50:35;2.95;;;0.73;;
54745;SDS011;40640;48.130;11.356;2023-03-14T06:54:40;0.38;;;0.38;;
54745;SDS011;40640;48.130;11.356;2023-03-14T06:58:42;0.50;;;0.30;;
54745;SDS011;40640;48.130;11.356;2023-03-14T07:02:51;1.98;;;0.28;;
54745;SDS011;40640;48.130;11.356;2023-03-14T07:07:00;1.00;;;0.40;;
54745;SDS011;40640;48.130;11.356;2023-03-14T07:11:08;4.35;;;1.23;;
54745;SDS011;40640;48.130;11.356;2023-03-14T07:15:13;2.00;;;1.20;;
54745;SDS011;40640;48.130;11.356;2023-03-14T07:19:24;1.75;;;1.08;;
54745;SDS011;40640;48.130;11.356;2023-03-14T07:23:27;0.65;;;0.20;;
54745;SDS011;40640;48.130;11.356;2023-03-14T07:27:32;1.17;;;0.30;;
54745;SDS011;40640;48.130;11.356;2023-03-14T07:31:35;0.57;;;0.20;;
54745;SDS011;40640;48.130;11.356;2023-03-14T07:35:39;0.47;;;0.30;;
54745;SDS011;40640;48.130;11.356;2023-03-14T07:39:42;0.65;;;0.50;;
54745;SDS011;40640;48.130;11.356;2023-03-14T07:43:53;0.20;;;0.20;;
54745;SDS011;40640;48.130;11.356;2023-03-14T07:47:56;1.65;;;1.00;;
54745;SDS011;40640;48.130;11.356;2023-03-14T07:51:59;1.20;;;0.68;;
54745;SDS011;40640;48.130;11.356;2023-03-14T07:56:01;0.50;;;0.35;;
54745;SDS011;40640;48.130;11.356;2023-03-14T08:00:07;1.50;;;1.05;;
54745;SDS011;40640;48.130;11.356;2023-03-14T08:04:14;0.93;;;0.63;;
54745;SDS011;40640;48.130;11.356;2023-03-14T08:08:16;1.40;;;0.68;;
54745;SDS011;40640;48.130;11.356;2023-03-14T08:12:19;0.68;;;0.45;;
54745;SDS011;40640;48.130;11.356;2023-03-14T08:16:26;0.60;;;0.40;;
54745;SDS011;40640;48.130;11.356;2023-03-14T08:20:29;0.52;;;0.32;;
54745;SDS011;40640;48.130;11.356;2023-03-14T08:24:32;0.32;;;0.30;;
54745;SDS011;40640;48.130;11.356;2023-03-14T08:28:35;1.73;;;0.52;;
54745;SDS011;40640;48.130;11.356;2023-03-14T08:32:39;1.77;;;0.38;;
54745;SDS011;40640;48.130;11.356;2023-03-14T08:36:42;0.90;;;0.50;;
54745;SDS011;40640;48.130;11.356;2023-03-14T08:40:45;1.92;;;0.70;;
54745;SDS011;40640;48.130;11.356;2023-03-14T08:44:48;1.02;;;0.63;;
54745;SDS011;40640;48.130;11.356;2023-03-14T08:48:54;4.78;;;1.45;;
54745;SDS011;40640;48.130;11.356;2023-03-14T08:52:59;0.90;;;0.60;;
54745;SDS011;40640;48.130;11.356;2023-03-14T08:57:02;0.60;;;0.47;;
54745;SDS011;40640;48.130;11.356;2023-03-14T09:01:07;1.15;;;0.30;;
54745;SDS011;40640;48.130;11.356;2023-03-14T09:05:15;1.73;;;0.30;;
54745;SDS011;40640;48.130;11.356;2023-03-14T09:09:18;0.73;;;0.28;;
54745;SDS011;40640;48.130;11.356;2023-03-14T09:13:21;1.30;;;0.20;;
54745;SDS011;40640;48.130;11.356;2023-03-14T09:17:24;1.17;;;0.50;;
54745;SDS011;40640;48.130;11.356;2023-03-14T09:21:28;0.50;;;0.30;;
54745;SDS011;40640;48.130;11.356;2023-03-14T09:25:31;0.20;;;0.20;;
54745;SDS011;40640;48.130;11.356;2023-03-14T09:29:33;0.60;;;0.35;;
54745;SDS011;40640;48.130;11.356;2023-03-14T09:33:36;1.48;;;0.50;;
54745;SDS011;40640;48.130;11.356;2023-03-14T09:37:41;1.23;;;0.40;;
54745;SDS011;40640;48.130;11.356;2023-03-14T09:41:44;0.88;;;0.40;;
54745;SDS011;40640;48.130;11.356;2023-03-14T09:45:50;0.40;;;0.30;;
54745;SDS011;40640;48.130;11.356;2023-03-14T09:49:57;0.20;;;0.20;;
54745;SDS011;40640;48.130;11.356;2023-03-14T09:54:04;0.93;;;0.50;;
54745;SDS011;40640;48.130;11.356;2023-03-14T09:58:12;1.65;;;0.65;;
54745;SDS011;40640;48.130;11.356;2023-03-14T10:02:17;0.95;;;0.50;;
54745;SDS011;40640;48.130;11.356;2023-03-14T10:06:21;0.73;;;0.40;;
54745;SDS011;40640;48.130;11.356;2023-03-14T10:10:29;2.85;;;0.47;;
54745;SDS011;40640;48.130;11.356;2023-03-14T10:14:33;0.93;;;0.20;;
54745;SDS011;40640;48.130;11.356;2023-03-14T10:18:38;0.73;;;0.40;;
54745;SDS011;40640;48.130;11.356;2023-03-14T10:22:47;0.47;;;0.40;;
54745;SDS011;40640;48.130;11.356;2023-03-14T10:26:55;0.50;;;0.30;;
54745;SDS011;40640;48.130;11.356;2023-03-14T10:31:02;0.75;;;0.30;;
54745;SDS011;40640;48.130;11.356;2023-03-14T10:35:07;1.30;;;0.30;;
54745;SDS011;40640;48.130;11.356;2023-03-14T10:39:24;0.50;;;0.20;;
54745;SDS011;40640;48.130;11.356;2023-03-14T10:43:32;0.40;;;0.30;;
54745;SDS011;40640;48.130;11.356;2023-03-14T10:47:38;1.23;;;0.47;;
54745;SDS011;40640;48.130;11.356;2023-03-14T10:51:51;2.88;;;0.60;;
54745;SDS011;40640;48.130;11.356;2023-03-14T10:55:55;2.30;;;0.20;;
54745;SDS011;40640;48.130;11.356;2023-03-14T10:59:59;1.23;;;0.20;;
54745;SDS011;40640;48.130;11.356;2023-03-14T11:04:10;0.13;;;0.10;;
54745;SDS011;40640;48.130;11.356;2023-03-14T11:08:25;0.65;;;0.30;;
54745;SDS011;40640;48.130;11.356;2023-03-14T11:12:36;0.38;;;0.17;;
54745;SDS011;40640;48.130;11.356;2023-03-14T11:16:47;2.30;;;0.60;;
54745;SDS011;40640;48.130;11.356;2023-03-14T11:20:57;0.47;;;0.30;;
54745;SDS011;40640;48.130;11.356;2023-03-14T11:25:16;0.45;;;0.20;;
54745;SDS011;40640;48.130;11.356;2023-03-14T11:29:25;1.33;;;0.30;;
54745;SDS011;40640;48.130;11.356;2023-03-14T11:33:37;1.25;;;0.22;;
54745;SDS011;40640;48.130;11.356;2023-03-14T11:37:42;0.82;;;0.35;;
54745;SDS011;40640;48.130;11.356;2023-03-14T11:41:50;1.45;;;0.20;;
54745;SDS011;40640;48.130;11.356;2023-03-14T11:50:03;0.10;;;0.10;;
54745;SDS011;40640;48.130;11.356;2023-03-14T11:54:12;0.82;;;0.43;;
54745;SDS011;40640;48.130;11.356;2023-03-14T11:58:20;0.32;;;0.13;;
54745;SDS011;40640;48.130;11.356;2023-03-14T12:02:31;0.52;;;0.32;;
54745;SDS011;40640;48.130;11.356;2023-03-14T12:06:44;1.13;;;0.30;;
54745;SDS011;40640;48.130;11.356;2023-03-14T12:10:51;1.17;;;0.73;;
54745;SDS011;40640;48.130;11.356;2023-03-14T12:14:56;0.45;;;0.10;;
54745;SDS011;40640;48.130;11.356;2023-03-14T12:19:13;0.32;;;0.10;;
54745;SDS011;40640;48.130;11.356;2023-03-14T12:23:27;1.33;;;0.40;;
54745;SDS011;40640;48.130;11.356;2023-03-14T12:27:41;0.98;;;0.30;;
54745;SDS011;40640;48.130;11.356;2023-03-14T12:31:47;0.30;;;0.10;;
54745;SDS011;40640;48.130;11.356;2023-03-14T12:35:51;0.45;;;0.20;;
54745;SDS011;40640;48.130;11.356;2023-03-14T12:40:05;0.28;;;0.20;;
54745;SDS011;40640;48.130;11.356;2023-03-14T12:44:38;0.20;;;0.10;;
54745;SDS011;40640;48.130;11.356;2023-03-14T12:48:43;0.30;;;0.30;;
54745;SDS011;40640;48.130;11.356;2023-03-14T12:52:52;0.45;;;0.17;;
54745;SDS011;40640;48.130;11.356;2023-03-14T12:57:24;0.00;;;0.00;;
54745;SDS011;40640;48.130;11.356;2023-03-14T13:01:30;0.10;;;0.10;;
54745;SDS011;40640;48.130;11.356;2023-03-14T13:05:36;0.20;;;0.20;;
54745;SDS011;40640;48.130;11.356;2023-03-14T13:14:08;0.20;;;0.10;;
54745;SDS011;40640;48.130;11.356;2023-03-14T13:18:14;0.00;;;0.00;;
54745;SDS011;40640;48.130;11.356;2023-03-14T13:22:20;1.92;;;0.28;;
54745;SDS011;40640;48.130;11.356;2023-03-14T13:26:31;7.13;;;1.67;;
54745;SDS011;40640;48.130;11.356;2023-03-14T13:30:40;0.85;;;0.10;;
54745;SDS011;40640;48.130;11.356;2023-03-14T13:34:45;0.00;;;0.00;;
54745;SDS011;40640;48.130;11.356;2023-03-14T13:38:55;10.30;;;0.20;;
54745;SDS011;40640;48.130;11.356;2023-03-14T13:42:59;0.20;;;0.10;;
54745;SDS011;40640;48.130;11.356;2023-03-14T13:47:11;0.45;;;0.30;;
54745;SDS011;40640;48.130;11.356;2023-03-14T13:51:17;0.32;;;0.17;;
54745;SDS011;40640;48.130;11.356;2023-03-14T13:55:22;0.10;;;0.03;;
54745;SDS011;40640;48.130;11.356;2023-03-14T13:59:25;0.10;;;0.10;;
54745;SDS011;40640;48.130;11.356;2023-03-14T14:03:32;0.50;;;0.10;;
54745;SDS011;40640;48.130;11.356;2023-03-14T14:07:36;0.35;;;0.10;;
54745;SDS011;40640;48.130;11.356;2023-03-14T14:11:41;0.30;;;0.20;;
54745;SDS011;40640;48.130;11.356;2023-03-14T14:16:04;0.10;;;0.08;;
54745;SDS011;40640;48.130;11.356;2023-03-14T14:20:19;1.83;;;0.40;;
54745;SDS011;40640;48.130;11.356;2023-03-14T14:24:24;0.70;;;0.25;;
54745;SDS011;40640;48.130;11.356;2023-03-14T14:28:34;1.63;;;1.33;;
54745;SDS011;40640;48.130;11.356;2023-03-14T14:32:39;2.40;;;0.40;;
54745;SDS011;40640;48.130;11.356;2023-03-14T14:36:44;0.77;;;0.40;;
54745;SDS011;40640;48.130;11.356;2023-03-14T14:40:51;0.60;;;0.13;;
54745;SDS011;40640;48.130;11.356;2023-03-14T14:44:57;2.13;;;1.45;;
54745;SDS011;40640;48.130;11.356;2023-03-14T14:49:05;4.70;;;2.70;;
54745;SDS011;40640;48.130;11.356;2023-03-14T14:53:23;0.82;;;0.20;;
54745;SDS011;40640;48.130;11.356;2023-03-14T14:57:31;1.30;;;0.20;;
54745;SDS011;40640;48.130;11.356;2023-03-14T15:01:37;0.20;;;0.10;;
54745;SDS011;40640;48.130;11.356;2023-03-14T15:05:41;0.22;;;0.22;;
54745;SDS011;40640;48.130;11.356;2023-03-14T15:09:45;0.43;;;0.30;;
54745;SDS011;40640;48.130;11.356;2023-03-14T15:13:48;2.15;;;0.20;;
54745;SDS011;40640;48.130;11.356;2023-03-14T15:17:51;0.20;;;0.10;;
54745;SDS011;40640;48.130;11.356;2023-03-14T15:21:54;1.05;;;0.57;;
54745;SDS011;40640;48.130;11.356;2023-03-14T15:25:59;0.75;;;0.38;;
54745;SDS011;40640;48.130;11.356;2023-03-14T15:30:02;1.00;;;0.50;;
54745;SDS011;40640;48.130;11.356;2023-03-14T15:34:05;1.42;;;0.60;;
54745;SDS011;40640;48.130;11.356;2023-03-14T15:38:09;1.50;;;0.60;;
54745;SDS011;40640;48.130;11.356;2023-03-14T15:42:15;1.60;;;0.60;;
54745;SDS011;40640;48.130;11.356;2023-03-14T15:46:17;1.00;;;0.60;;
54745;SDS011;40640;48.130;11.356;2023-03-14T15:50:21;1.77;;;1.05;;
54745;SDS011;40640;48.130;11.356;2023-03-14T15:54:24;0.70;;;0.60;;
54745;SDS011;40640;48.130;11.356;2023-03-14T15:58:31;1.67;;;0.70;;
54745;SDS011;40640;48.130;11.356;2023-03-14T16:02:35;0.98;;;0.70;;
54745;SDS011;40640;48.130;11.356;2023-03-14T16:06:41;2.95;;;0.70;;
54745;SDS011;40640;48.130;11.356;2023-03-14T16:10:45;0.98;;;0.50;;
54745;SDS011;40640;48.130;11.356;2023-03-14T16:14:50;2.50;;;0.50;;
54745;SDS011;40640;48.130;11.356;2023-03-14T16:18:53;3.03;;;0.50;;
54745;SDS011;40640;48.130;11.356;2023-03-14T16:22:56;0.65;;;0.60;;
54745;SDS011;40640;48.130;11.356;2023-03-14T16:26:58;1.13;;;0.73;;
54745;SDS011;40640;48.130;11.356;2023-03-14T16:31:04;1.92;;;0.55;;
54745;SDS011;40640;48.130;11.356;2023-03-14T16:39:10;1.67;;;0.50;;
54745;SDS011;40640;48.130;11.356;2023-03-14T16:43:13;1.30;;;0.60;;
54745;SDS011;40640;48.130;11.356;2023-03-14T16:47:18;1.23;;;0.52;;
54745;SDS011;40640;48.130;11.356;2023-03-14T16:51:21;3.55;;;0.70;;
54745;SDS011;40640;48.130;11.356;2023-03-14T16:55:24;2.45;;;0.80;;
54745;SDS011;40640;48.130;11.356;2023-03-14T16:59:26;2.75;;;0.60;;
54745;SDS011;40640;48.130;11.356;2023-03-14T17:03:31;4.63;;;1.45;;
54745;SDS011;40640;48.130;11.356;2023-03-14T17:07:34;4.53;;;0.68;;
54745;SDS011;40640;48.130;11.356;2023-03-14T17:11:37;3.00;;;0.95;;
54745;SDS011;40640;48.130;11.356;2023-03-14T17:15:43;1.75;;;0.55;;
54745;SDS011;40640;48.130;11.356;2023-03-14T17:19:49;0.90;;;0.57;;
54745;SDS011;40640;48.130;11.356;2023-03-14T17:23:52;1.42;;;0.60;;
54745;SDS011;40640;48.130;11.356;2023-03-14T17:27:54;2.38;;;0.73;;
54745;SDS011;40640;48.130;11.356;2023-03-14T17:31:58;2.13;;;0.68;;
54745;SDS011;40640;48.130;11.356;2023-03-14T17:36:02;1.67;;;0.80;;
54745;SDS011;40640;48.130;11.356;2023-03-14T17:40:07;23.40;;;8.40;;
54745;SDS011;40640;48.130;11.356;2023-03-14T17:44:10;38.28;;;15.05;;
54745;SDS011;40640;48.130;11.356;2023-03-14T17:48:13;68.88;;;26.00;;
54745;SDS011;40640;48.130;11.356;2023-03-14T17:52:17;26.35;;;11.93;;
54745;SDS011;40640;48.130;11.356;2023-03-14T17:56:21;5.50;;;3.40;;
54745;SDS011;40640;48.130;11.356;2023-03-14T18:00:23;4.32;;;3.30;;
54745;SDS011;40640;48.130;11.356;2023-03-14T18:04:27;3.38;;;0.95;;
54745;SDS011;40640;48.130;11.356;2023-03-14T18:08:31;6.90;;;1.33;;
54745;SDS011;40640;48.130;11.356;2023-03-14T18:12:34;1.38;;;0.73;;
54745;SDS011;40640;48.130;11.356;2023-03-14T18:16:37;3.00;;;1.60;;
54745;SDS011;40640;48.130;11.356;2023-03-14T18:20:40;2.08;;;1.42;;
54745;SDS011;40640;48.130;11.356;2023-03-14T18:24:44;5.45;;;1.42;;
54745;SDS011;40640;48.130;11.356;2023-03-14T18:28:47;9.27;;;1.30;;
54745;SDS011;40640;48.130;11.356;2023-03-14T18:32:50;8.73;;;4.00;;
54745;SDS011;40640;48.130;11.356;2023-03-14T18:36:52;26.63;;;14.88;;
54745;SDS011;40640;48.130;11.356;2023-03-14T18:40:57;16.67;;;8.35;;
54745;SDS011;40640;48.130;11.356;2023-03-14T18:45:05;12.88;;;8.63;;
54745;SDS011;40640;48.130;11.356;2023-03-14T18:49:09;6.57;;;3.25;;
54745;SDS011;40640;48.130;11.356;2023-03-14T18:53:14;5.15;;;2.15;;
54745;SDS011;40640;48.130;11.356;2023-03-14T18:57:18;4.72;;;2.50;;
54745;SDS011;40640;48.130;11.356;2023-03-14T19:01:22;2.80;;;1.85;;
54745;SDS011;40640;48.130;11.356;2023-03-14T19:05:30;3.00;;;1.88;;
54745;SDS011;40640;48.130;11.356;2023-03-14T19:09:33;3.53;;;1.25;;
54745;SDS011;40640;48.130;11.356;2023-03-14T19:13:38;7.55;;;1.30;;
54745;SDS011;40640;48.130;11.356;2023-03-14T19:17:42;2.77;;;1.47;;
54745;SDS011;40640;48.130;11.356;2023-03-14T19:21:45;4.13;;;1.60;;
54745;SDS011;40640;48.130;11.356;2023-03-14T19:25:47;2.35;;;0.90;;
54745;SDS011;40640;48.130;11.356;2023-03-14T19:29:52;4.15;;;1.38;;
54745;SDS011;40640;48.130;11.356;2023-03-14T19:33:55;3.15;;;1.40;;
54745;SDS011;40640;48.130;11.356;2023-03-14T19:37:59;6.63;;;1.52;;
54745;SDS011;40640;48.130;11.356;2023-03-14T19:42:02;4.07;;;1.95;;
54745;SDS011;40640;48.130;11.356;2023-03-14T19:46:08;2.90;;;1.65;;
54745;SDS011;40640;48.130;11.356;2023-03-14T19:50:11;2.85;;;1.25;;
54745;SDS011;40640;48.130;11.356;2023-03-14T19:54:14;6.95;;;1.50;;
54745;SDS011;40640;48.130;11.356;2023-03-14T19:58:17;8.00;;;1.33;;
54745;SDS011;40640;48.130;11.356;2023-03-14T20:02:21;7.40;;;1.95;;
54745;SDS011;40640;48.130;11.356;2023-03-14T20:06:24;3.78;;;1.17;;
54745;SDS011;40640;48.130;11.356;2023-03-14T20:10:27;4.38;;;1.58;;
54745;SDS011;40640;48.130;11.356;2023-03-14T20:14:30;4.28;;;1.70;;
54745;SDS011;40640;48.130;11.356;2023-03-14T20:18:35;12.13;;;1.90;;
54745;SDS011;40640;48.130;11.356;2023-03-14T20:22:38;5.38;;;2.00;;
54745;SDS011;40640;48.130;11.356;2023-03-14T20:26:41;4.38;;;1.45;;
54745;SDS011;40640;48.130;11.356;2023-03-14T20:30:44;3.20;;;1.55;;
54745;SDS011;40640;48.130;11.356;2023-03-14T20:34:48;7.30;;;1.23;;
54745;SDS011;40640;48.130;11.356;2023-03-14T20:38:51;2.67;;;1.33;;
54745;SDS011;40640;48.130;11.356;2023-03-14T20:42:54;4.47;;;1.40;;
54745;SDS011;40640;48.130;11.356;2023-03-14T20:46:58;7.60;;;1.52;;
54745;SDS011;40640;48.130;11.356;2023-03-14T20:51:02;4.90;;;1.38;;
54745;SDS011;40640;48.130;11.356;2023-03-14T20:55:05;9.25;;;1.75;;
54745;SDS011;40640;48.130;11.356;2023-03-14T20:59:09;5.28;;;2.20;;
54745;SDS011;40640;48.130;11.356;2023-03-14T21:03:12;6.55;;;1.85;;
54745;SDS011;40640;48.130;11.356;2023-03-14T21:07:16;5.05;;;1.92;;
54745;SDS011;40640;48.130;11.356;2023-03-14T21:11:20;2.72;;;1.70;;
54745;SDS011;40640;48.130;11.356;2023-03-14T21:15:23;4.22;;;2.00;;
54745;SDS011;40640;48.130;11.356;2023-03-14T21:19:26;5.70;;;1.95;;
54745;SDS011;40640;48.130;11.356;2023-03-14T21:23:33;4.03;;;1.75;;
54745;SDS011;40640;48.130;11.356;2023-03-14T21:27:36;3.97;;;1.45;;
54745;SDS011;40640;48.130;11.356;2023-03-14T21:31:40;2.53;;;0.90;;
54745;SDS011;40640;48.130;11.356;2023-03-14T21:35:43;6.47;;;4.63;;
54745;SDS011;40640;48.130;11.356;2023-03-14T21:39:47;9.32;;;4.07;;
54745;SDS011;40640;48.130;11.356;2023-03-14T21:43:50;5.28;;;2.10;;
54745;SDS011;40640;48.130;11.356;2023-03-14T21:47:54;2.80;;;1.30;;
54745;SDS011;40640;48.130;11.356;2023-03-14T21:51:58;3.30;;;1.77;;
54745;SDS011;40640;48.130;11.356;2023-03-14T21:56:06;2.97;;;1.27;;
54745;SDS011;40640;48.130;11.356;2023-03-14T22:00:10;3.85;;;1.52;;
54745;SDS011;40640;48.130;11.356;2023-03-14T22:04:13;4.88;;;2.28;;
54745;SDS011;40640;48.130;11.356;2023-03-14T22:08:16;2.65;;;1.63;;
54745;SDS011;40640;48.130;11.356;2023-03-14T22:12:24;3.22;;;1.45;;
54745;SDS011;40640;48.130;11.356;2023-03-14T22:16:26;2.15;;;1.00;;
54745;SDS011;40640;48.130;11.356;2023-03-14T22:20:29;4.70;;;1.13;;
54745;SDS011;40640;48.130;11.356;2023-03-14T22:24:32;5.75;;;1.70;;
54745;SDS011;40640;48.130;11.356;2023-03-14T22:28:37;1.27;;;0.95;;
54745;SDS011;40640;48.130;11.356;2023-03-14T22:32:40;2.92;;;1.20;;
54745;SDS011;40640;48.130;11.356;2023-03-14T22:36:42;5.35;;;1.42;;
54745;SDS011;40640;48.130;11.356;2023-03-14T22:40:45;4.00;;;0.95;;
54745;SDS011;40640;48.130;11.356;2023-03-14T22:44:51;2.50;;;1.00;;
54745;SDS011;40640;48.130;11.356;2023-03-14T22:48:54;3.65;;;1.00;;
54745;SDS011;40640;48.130;11.356;2023-03-14T22:52:57;1.10;;;0.98;;
54745;SDS011;40640;48.130;11.356;2023-03-14T22:57:00;5.55;;;1.15;;
54745;SDS011;40640;48.130;11.356;2023-03-14T23:01:04;2.72;;;0.80;;
54745;SDS011;40640;48.130;11.356;2023-03-14T23:05:08;4.82;;;1.70;;
54745;SDS011;40640;48.130;11.356;2023-03-14T23:09:11;4.28;;;1.15;;
54745;SDS011;40640;48.130;11.356;2023-03-14T23:13:14;2.03;;;0.93;;
54745;SDS011;40640;48.130;11.356;2023-03-14T23:17:18;3.00;;;0.90;;
54745;SDS011;40640;48.130;11.356;2023-03-14T23:21:21;1.25;;;0.90;;
54745;SDS011;40640;48.130;11.356;2023-03-14T23:25:24;2.58;;;1.00;;
54745;SDS011;40640;48.130;11.356;2023-03-14T23:29:30;1.60;;;1.10;;
54745;SDS011;40640;48.130;11.356;2023-03-14T23:33:34;1.58;;;1.08;;
54745;SDS011;40640;48.130;11.356;2023-03-14T23:37:38;2.15;;;1.17;;
54745;SDS011;40640;48.130;11.356;2023-03-14T23:41:41;6.00;;;1.88;;
54745;SDS011;40640;48.130;11.356;2023-03-14T23:45:46;2.03;;;1.00;;
54745;SDS011;40640;48.130;11.356;2023-03-14T23:49:51;4.25;;;1.25;;
54745;SDS011;40640;48.130;11.356;2023-03-14T23:53:54;0.93;;;0.70;;
54745;SDS011;40640;48.130;11.356;2023-03-14T23:57:57;1.20;;;0.88;;
